RKSI Airport Information

Runway Information
Runway 15L Length 12303 ft width 197 ft
Elevation 23 ft Threshold 0 ft Heading 145
Runway 33R Length 12303 ft Width 197 ft
Elevation 23 ft Threshold 0 ft Heading 325
Runway 15R Length 12303 ft width 197 ft
Elevation 23 ft Threshold 0 ft Heading 145
Runway 33L Length 12303 ft Width 197 ft
Elevation 23 ft Threshold 0 ft Heading 325
Runway 16 Length 13000 ft width 197 ft
Elevation 0 ft Threshold 0 ft Heading 153
Runway 34 Length 13000 ft Width 197 ft
Elevation 0 ft Threshold 0 ft Heading 333
Airport Frequencies
Type APP Name SEOUL APP Frequency 120.8 MHZ
Type ATIS Name ATIS Frequency 23.025 MHZ
Type CLD Name CLNC DEL Frequency 121 MHZ
Type DEP Name SEOUL DEP Frequency 121.35 MHZ
Type GND Name GND Frequency 121.4 MHZ
Type RMP Name RAMP CON Frequency 121.65 MHZ
Type TWR Name TWR Frequency 118.2 MHZ
Airport Navaids
Type VOR-DME Name Incheon Frequency 113800 KHZ
Airport Weather Information & NOTAM
ADDS - METARS form results

(0154 UTC 22 November 2019)
Data provider http://aviationweather.gov/metar/data/
 
METAR text: RKSI 220130Z 05007KT CAVOK 11/M04 Q1029 NOSIG
Conditions at: RKSI (CHAJANG NI , KR) observed 0130 UTC 22 November 2019
Temperature: 11.0°C (52°F)
Dewpoint: -4.0°C (25°F) [RH = 35%]
Pressure (altimeter): 30.38 inches Hg (1029.0 mb)
Winds: from the NE (50 degrees) at 8 MPH (7 knots; 3.6 m/s)
Visibility: 6 or more miles (10+ km)
Ceiling: ceiling and visibility are OK
Clouds: unknown
Weather: no significant weather observed at this time

METAR text: RKSI 220100Z 05007KT CAVOK 11/M04 Q1029 NOSIG
Conditions at: RKSI (CHAJANG NI , KR) observed 0100 UTC 22 November 2019
Temperature: 11.0°C (52°F)
Dewpoint: -4.0°C (25°F) [RH = 35%]
Pressure (altimeter): 30.38 inches Hg (1029.0 mb)
Winds: from the NE (50 degrees) at 8 MPH (7 knots; 3.6 m/s)
Visibility: 6 or more miles (10+ km)
Ceiling: ceiling and visibility are OK
Clouds: unknown
Weather: no significant weather observed at this time

Forecast for: RKSI (CHAJANG NI , KR)
Text: TAF RKSI 212300Z 2200/2306 12007KT CAVOK TX15/2205Z TN08/2221Z TX16/2305Z
Forecast period: 0000 UTC 22 November 2019 to 0600 UTC 23 November 2019
Forecast type: FROM: standard forecast or significant change
Winds: from the ESE (120 degrees) at 8 MPH (7 knots; 3.6 m/s)
Visibility: 6 or more miles 10+ km)
Ceiling: unknown
Clouds: missing
Weather: no significant weather forecast for this period